createdAt,value
2023-01-22T00:02:24.777Z,98913.42
2023-01-22T00:04:57.341Z,98915.80
2023-01-22T00:07:29.792Z,98913.07
2023-01-22T00:10:02.735Z,98914.58
2023-01-22T00:12:36.026Z,98920.95
2023-01-22T00:15:10.061Z,98926.36
2023-01-22T00:17:42.793Z,98934.79
2023-01-22T00:20:16.549Z,98939.68
2023-01-22T00:22:49.031Z,98944.60
2023-01-22T00:25:21.536Z,98945.21
2023-01-22T00:27:54.179Z,98944.59
2023-01-22T00:30:26.760Z,98945.52
2023-01-22T00:32:59.393Z,98948.36
2023-01-22T00:35:31.988Z,98948.64
2023-01-22T00:38:07.745Z,98954.41
2023-01-22T00:40:40.156Z,98958.52
2023-01-22T00:43:18.291Z,98955.73
2023-01-22T00:45:53.444Z,98957.98
2023-01-22T00:48:28.925Z,98959.38
2023-01-22T00:51:01.388Z,98958.88
2023-01-22T00:53:34.741Z,98952.85
2023-01-22T00:56:08.728Z,98961.74
2023-01-22T00:58:51.808Z,98959.28
2023-01-22T01:01:27.789Z,98965.21
2023-01-22T01:04:00.780Z,98966.10
2023-01-22T01:06:33.772Z,98972.38
2023-01-22T01:09:06.775Z,98971.97
2023-01-22T01:14:56.706Z,98982.77
2023-01-22T01:17:29.320Z,98980.75
2023-01-22T01:20:01.876Z,98979.05
2023-01-22T01:22:34.737Z,98981.15
2023-01-22T01:25:10.487Z,98984.90
2023-01-22T01:27:43.453Z,98985.19
2023-01-22T01:30:17.285Z,98983.65
2023-01-22T01:32:50.942Z,98981.16
2023-01-22T01:35:24.385Z,98986.14
2023-01-22T01:37:59.554Z,98994.20
2023-01-22T01:40:35.716Z,98997.14
2023-01-22T01:43:12.606Z,98993.66
2023-01-22T01:45:45.578Z,98994.33
2023-01-22T01:48:30.266Z,98991.55
2023-01-22T01:51:07.759Z,98988.48
2023-01-22T01:53:44.142Z,98993.39
2023-01-22T01:56:20.835Z,98997.92
2023-01-22T01:59:00.509Z,99002.19
2023-01-22T02:01:34.575Z,98996.21
2023-01-22T02:04:07.499Z,98997.61
2023-01-22T02:06:41.318Z,98997.42
2023-01-22T02:09:17.202Z,98993.27
2023-01-22T02:11:51.532Z,98988.17
2023-01-22T02:14:28.042Z,98981.00
2023-01-22T02:17:11.832Z,98979.70
2023-01-22T02:19:47.935Z,98978.09
2023-01-22T02:22:24.469Z,98976.62
2023-01-22T02:24:59.829Z,98981.23
2023-01-22T02:27:32.798Z,98987.05
2023-01-22T02:30:05.679Z,98987.73
2023-01-22T02:32:38.379Z,98993.31
2023-01-22T02:35:14.135Z,99001.34
2023-01-22T02:37:49.329Z,99008.66
2023-01-22T02:40:24.770Z,99016.05
2023-01-22T02:42:59.032Z,99027.29
2023-01-22T02:45:31.662Z,99029.35
2023-01-22T02:48:04.276Z,99027.73
2023-01-22T02:50:39.095Z,99029.34
2023-01-22T02:53:11.549Z,99030.33
2023-01-22T02:55:50.721Z,99031.33
2023-01-22T02:58:23.118Z,99034.59
2023-01-22T03:00:55.827Z,99035.67
2023-01-22T03:03:28.397Z,99032.58
2023-01-22T03:06:00.899Z,99032.21
2023-01-22T03:08:34.040Z,99037.30
2023-01-22T03:11:07.105Z,99033.86
2023-01-22T03:13:58.229Z,99033.15
2023-01-22T03:16:49.127Z,99028.44
2023-01-22T03:19:39.805Z,99028.05
2023-01-22T03:22:20.108Z,99023.63
2023-01-22T03:24:53.242Z,99021.37
2023-01-22T03:27:29.740Z,99020.47
2023-01-22T03:30:05.787Z,99019.92
2023-01-22T03:32:39.943Z,99018.63
2023-01-22T03:35:14.908Z,99017.58
2023-01-22T03:37:59.515Z,99013.98
2023-01-22T03:40:35.175Z,99014.40
2023-01-22T03:43:07.765Z,99010.43
2023-01-22T03:45:40.211Z,99016.85
2023-01-22T03:48:15.241Z,99020.46
2023-01-22T03:50:47.657Z,99024.02
2023-01-22T03:53:20.381Z,99023.83
2023-01-22T03:56:01.651Z,99022.09
2023-01-22T03:58:35.009Z,99018.34
2023-01-22T04:01:09.861Z,99016.98
2023-01-22T04:03:45.464Z,99025.27
2023-01-22T04:06:19.468Z,99032.14
2023-01-22T04:08:57.473Z,99029.85
2023-01-22T04:11:37.369Z,99029.84
2023-01-22T04:14:17.948Z,99027.41
2023-01-22T04:17:03.391Z,99033.70
2023-01-22T04:19:53.583Z,99035.59
2023-01-22T04:22:48.683Z,99039.86
2023-01-22T04:25:24.354Z,99046.39
2023-01-22T04:27:59.681Z,99045.45
2023-01-22T04:30:33.932Z,99050.95
2023-01-22T04:33:24.033Z,99049.01
2023-01-22T04:36:16.392Z,99045.54
2023-01-22T04:38:52.578Z,99049.61
2023-01-22T04:41:28.031Z,99049.30
2023-01-22T04:44:10.042Z,99051.08
2023-01-22T04:46:43.272Z,99054.36
2023-01-22T04:49:20.528Z,99056.79
2023-01-22T04:51:54.942Z,99052.17
2023-01-22T04:54:27.495Z,99057.12
2023-01-22T04:57:03.294Z,99064.72
2023-01-22T04:59:36.335Z,99067.13
2023-01-22T05:02:16.266Z,99062.82
2023-01-22T05:04:52.357Z,99066.15
2023-01-22T05:07:25.342Z,99071.41
2023-01-22T05:09:58.384Z,99068.35
2023-01-22T05:12:31.391Z,99065.89
2023-01-22T05:15:07.303Z,99071.73
2023-01-22T05:17:47.178Z,99068.40
2023-01-22T05:20:23.367Z,99068.88
2023-01-22T05:22:58.840Z,99070.14
2023-01-22T05:25:35.023Z,99069.41
2023-01-22T05:28:16.540Z,99072.48
2023-01-22T05:31:03.919Z,99073.27
2023-01-22T05:33:44.418Z,99079.45
2023-01-22T05:36:19.684Z,99080.42
2023-01-22T05:38:54.159Z,99085.14
2023-01-22T05:41:32.803Z,99090.67
2023-01-22T05:44:08.409Z,99092.29
2023-01-22T05:46:44.409Z,99092.63
2023-01-22T05:49:28.497Z,99089.81
2023-01-22T05:52:11.073Z,99091.23
2023-01-22T05:54:47.805Z,99092.98
2023-01-22T05:57:20.330Z,99095.44
2023-01-22T05:59:56.189Z,99097.55
2023-01-22T06:02:29.546Z,99096.38
2023-01-22T06:05:03.496Z,99100.77
2023-01-22T06:07:36.192Z,99102.73
2023-01-22T06:10:10.919Z,99102.23
2023-01-22T06:12:49.215Z,99103.59
2023-01-22T06:15:22.069Z,99097.27
2023-01-22T06:18:05.233Z,99096.42
2023-01-22T06:20:38.045Z,99091.02
2023-01-22T06:23:13.185Z,99096.89
2023-01-22T06:25:46.329Z,99101.23
2023-01-22T06:28:25.908Z,99104.41
2023-01-22T06:31:05.871Z,99106.52
2023-01-22T06:33:46.163Z,99116.05
2023-01-22T06:36:20.169Z,99120.73
2023-01-22T06:38:56.309Z,99127.13
2023-01-22T06:41:41.457Z,99129.52
2023-01-22T06:44:15.806Z,99132.63
2023-01-22T06:46:48.318Z,99141.59
2023-01-22T06:49:30.010Z,99153.87
2023-01-22T06:52:02.379Z,99156.39
2023-01-22T06:54:34.538Z,99156.90
2023-01-22T06:57:07.085Z,99164.29
2023-01-22T06:59:45.512Z,99167.88
2023-01-22T07:02:20.465Z,99170.98
2023-01-22T07:04:58.698Z,99177.02
2023-01-22T07:11:04.126Z,99184.73
2023-01-22T07:13:36.929Z,99186.95
2023-01-22T07:16:08.640Z,99187.81
2023-01-22T07:18:43.002Z,99183.15
2023-01-22T07:21:12.753Z,99181.46
2023-01-22T07:23:41.740Z,99182.61
2023-01-22T07:26:10.842Z,99191.64
2023-01-22T07:28:43.366Z,99198.23
2023-01-22T07:31:13.509Z,99205.44
2023-01-22T07:33:42.572Z,99199.51
2023-01-22T07:36:14.660Z,99188.81
2023-01-22T07:38:43.491Z,99184.31
2023-01-22T07:41:25.183Z,99183.14
2023-01-22T07:44:03.236Z,99187.52
2023-01-22T07:46:39.125Z,99189.44
2023-01-22T07:49:08.439Z,99189.33
2023-01-22T07:51:37.479Z,99194.11
2023-01-22T07:54:06.552Z,99197.52
2023-01-22T07:56:35.532Z,99193.27
2023-01-22T07:59:05.385Z,99187.34
2023-01-22T08:01:34.340Z,99181.38
2023-01-22T08:04:03.323Z,99182.45
2023-01-22T08:06:32.384Z,99191.40
2023-01-22T08:09:01.439Z,99193.04
2023-01-22T08:11:30.433Z,99190.77
2023-01-22T08:13:59.572Z,99193.71
2023-01-22T08:16:28.989Z,99199.08
2023-01-22T08:18:57.994Z,99206.30
2023-01-22T08:21:26.878Z,99210.94
2023-01-22T08:23:55.804Z,99210.19
2023-01-22T08:26:24.667Z,99210.52
2023-01-22T08:28:53.744Z,99211.48
2023-01-22T08:31:27.824Z,99215.24
2023-01-22T08:33:58.876Z,99216.23
2023-01-22T08:36:26.965Z,99210.02
2023-01-22T08:38:56.112Z,99213.32
2023-01-22T08:41:25.386Z,99214.98
2023-01-22T08:43:54.502Z,99218.22
2023-01-22T08:46:23.338Z,99217.68
2023-01-22T08:48:52.179Z,99212.30
2023-01-22T08:51:22.936Z,99219.91
2023-01-22T08:53:52.005Z,99216.73
2023-01-22T08:56:20.895Z,99220.65
2023-01-22T08:58:50.985Z,99222.39
2023-01-22T09:01:20.775Z,99224.48
2023-01-22T09:03:49.669Z,99230.60
2023-01-22T09:06:18.684Z,99235.63
2023-01-22T09:08:47.497Z,99240.80
2023-01-22T09:11:16.398Z,99236.98
2023-01-22T09:13:45.264Z,99231.77
2023-01-22T09:16:14.200Z,99233.84
2023-01-22T09:18:43.047Z,99231.45
2023-01-22T09:21:11.836Z,99227.85
2023-01-22T09:23:40.919Z,99230.53
2023-01-22T09:26:09.868Z,99225.24
2023-01-22T09:28:38.733Z,99224.97
2023-01-22T09:31:07.606Z,99227.46
2023-01-22T09:33:36.819Z,99225.16
2023-01-22T09:36:13.241Z,99222.88
2023-01-22T09:38:44.882Z,99224.55
2023-01-22T09:41:22.261Z,99226.48
2023-01-22T09:43:54.560Z,99225.56
2023-01-22T09:46:28.175Z,99225.39
2023-01-22T09:49:02.635Z,99226.27
2023-01-22T09:51:31.722Z,99225.42
2023-01-22T09:54:03.767Z,99225.98
2023-01-22T09:56:49.369Z,99221.90
2023-01-22T09:59:20.455Z,99226.86
2023-01-22T10:01:53.161Z,99226.04
2023-01-22T10:04:30.790Z,99215.84
2023-01-22T10:07:02.684Z,99220.11
2023-01-22T10:09:33.788Z,99220.23
2023-01-22T10:12:11.961Z,99223.25
2023-01-22T10:14:43.300Z,99226.79
2023-01-22T10:17:22.950Z,99213.42
2023-01-22T10:19:56.504Z,99209.64
2023-01-22T10:22:26.495Z,99208.98
2023-01-22T10:24:56.463Z,99209.25
2023-01-22T10:27:33.810Z,99207.73
2023-01-22T10:30:07.729Z,99208.60
2023-01-22T10:32:36.577Z,99209.24
2023-01-22T10:35:20.577Z,99209.38
2023-01-22T10:37:51.638Z,99212.58
2023-01-22T10:40:26.529Z,99215.50
2023-01-22T10:43:05.464Z,99213.92
2023-01-22T10:45:34.361Z,99214.44
2023-01-22T10:48:13.360Z,99211.72
2023-01-22T10:50:48.128Z,99209.76
2023-01-22T10:53:29.100Z,99208.02
2023-01-22T10:56:00.282Z,99204.03
2023-01-22T10:58:32.878Z,99200.48
2023-01-22T11:01:04.071Z,99199.66
2023-01-22T11:03:36.109Z,99197.20
2023-01-22T11:06:12.585Z,99197.69
2023-01-22T11:08:47.088Z,99205.61
2023-01-22T11:11:20.619Z,99206.28
2023-01-22T11:13:56.572Z,99201.48
2023-01-22T11:16:27.071Z,99193.75
2023-01-22T11:18:58.414Z,99189.05
2023-01-22T11:21:30.298Z,99187.54
2023-01-22T11:24:03.532Z,99184.35
2023-01-22T11:26:43.703Z,99183.06
2023-01-22T11:29:34.577Z,99183.13
2023-01-22T11:32:25.363Z,99185.65
2023-01-22T11:35:02.040Z,99184.45
2023-01-22T11:37:45.644Z,99183.66
2023-01-22T11:40:25.940Z,99177.84
2023-01-22T11:43:09.971Z,99176.66
2023-01-22T11:46:09.342Z,99173.45
2023-01-22T11:48:52.603Z,99171.42
2023-01-22T11:51:28.770Z,99173.48
2023-01-22T11:54:31.126Z,99178.83
2023-01-22T11:57:15.311Z,99180.88
2023-01-22T12:00:22.462Z,99183.26
2023-01-22T12:03:09.541Z,99187.77
2023-01-22T12:05:45.935Z,99191.02
2023-01-22T12:08:27.731Z,99186.98
2023-01-22T12:11:14.177Z,99182.59
2023-01-22T12:14:09.899Z,99183.14
2023-01-22T12:16:48.439Z,99188.70
2023-01-22T12:19:43.742Z,99186.83
2023-01-22T12:22:27.651Z,99192.79
2023-01-22T12:25:01.798Z,99191.39
2023-01-22T12:27:34.727Z,99196.73
2023-01-22T12:30:22.239Z,99198.82
2023-01-22T12:32:57.305Z,99194.53
2023-01-22T12:35:29.140Z,99191.95
2023-01-22T12:38:05.486Z,99197.23
2023-01-22T12:40:55.739Z,99196.98
2023-01-22T12:43:35.565Z,99198.52
2023-01-22T12:46:12.451Z,99200.59
2023-01-22T12:49:03.235Z,99201.36
2023-01-22T12:51:38.914Z,99203.34
2023-01-22T12:54:29.564Z,99205.48
2023-01-22T12:57:09.563Z,99209.85
2023-01-22T12:59:47.188Z,99214.91
2023-01-22T13:02:35.123Z,99213.09
2023-01-22T13:05:17.171Z,99220.73
2023-01-22T13:07:47.073Z,99227.14
2023-01-22T13:10:28.639Z,99231.79
2023-01-22T13:13:01.248Z,99237.66
2023-01-22T13:15:33.850Z,99244.05
2023-01-22T13:18:07.867Z,99244.52
2023-01-22T13:20:47.715Z,99245.13
2023-01-22T13:23:17.305Z,99245.82
2023-01-22T13:25:52.043Z,99249.27
2023-01-22T13:28:21.534Z,99252.09
2023-01-22T13:31:01.470Z,99253.75
2023-01-22T13:33:32.828Z,99253.70
2023-01-22T13:36:10.178Z,99251.98
2023-01-22T13:38:53.148Z,99251.09
2023-01-22T13:41:28.281Z,99251.55
2023-01-22T13:43:57.402Z,99251.90
2023-01-22T13:46:28.071Z,99254.51
2023-01-22T13:49:06.112Z,99259.13
2023-01-22T13:51:35.976Z,99261.05
2023-01-22T13:54:06.571Z,99267.87
2023-01-22T13:56:37.201Z,99269.94
2023-01-22T13:59:16.849Z,99270.88
2023-01-22T14:01:46.331Z,99267.72
2023-01-22T14:04:38.326Z,99272.27
2023-01-22T14:07:07.330Z,99275.77
2023-01-22T14:09:41.512Z,99278.73
2023-01-22T14:12:18.724Z,99282.03
2023-01-22T14:14:48.163Z,99288.20
2023-01-22T14:17:30.067Z,99290.54
2023-01-22T14:19:58.956Z,99294.98
2023-01-22T14:22:27.725Z,99302.64
2023-01-22T14:24:56.684Z,99303.34
2023-01-22T14:27:28.705Z,99304.58
2023-01-22T14:29:57.609Z,99307.34
2023-01-22T14:32:26.659Z,99311.17
2023-01-22T14:34:55.517Z,99314.20
2023-01-22T14:37:24.654Z,99315.65
2023-01-22T14:39:53.467Z,99318.95
2023-01-22T14:42:25.896Z,99317.59
2023-01-22T14:44:54.946Z,99315.59
2023-01-22T14:47:23.776Z,99316.70
2023-01-22T14:49:53.522Z,99318.17
2023-01-22T14:52:22.668Z,99319.99
2023-01-22T14:54:51.730Z,99324.73
2023-01-22T14:57:20.808Z,99319.70
2023-01-22T14:59:49.935Z,99321.08
2023-01-22T15:02:19.109Z,99320.81
2023-01-22T15:04:48.035Z,99324.41
2023-01-22T15:07:17.054Z,99325.56
2023-01-22T15:09:45.959Z,99325.30
2023-01-22T15:12:14.783Z,99330.99
2023-01-22T15:14:43.683Z,99334.04
2023-01-22T15:17:12.515Z,99333.73
2023-01-22T15:19:41.955Z,99337.75
2023-01-22T15:22:11.003Z,99343.05
2023-01-22T15:24:44.992Z,99344.05
2023-01-22T15:27:20.705Z,99353.09
2023-01-22T15:29:49.704Z,99361.80
2023-01-22T15:32:18.510Z,99364.06
2023-01-22T15:34:47.451Z,99364.20
2023-01-22T15:37:16.632Z,99366.52
2023-01-22T15:39:45.651Z,99372.12
2023-01-22T15:42:14.647Z,99377.48
2023-01-22T15:44:46.806Z,99377.52
2023-01-22T15:47:16.027Z,99381.23
2023-01-22T15:49:45.293Z,99384.55
2023-01-22T15:52:14.229Z,99388.40
2023-01-22T15:54:43.167Z,99390.30
2023-01-22T15:57:12.003Z,99394.58
2023-01-22T15:59:41.560Z,99398.33
2023-01-22T16:02:11.494Z,99393.70
2023-01-22T16:04:40.535Z,99390.45
2023-01-22T16:07:11.130Z,99390.23
2023-01-22T16:09:40.376Z,99387.05
2023-01-22T16:12:09.648Z,99390.37
2023-01-22T16:14:39.702Z,99392.33
2023-01-22T16:17:10.014Z,99397.35
2023-01-22T16:19:38.273Z,99399.08
2023-01-22T16:22:07.457Z,99401.54
2023-01-22T16:24:36.415Z,99401.72
2023-01-22T16:27:05.367Z,99406.69
2023-01-22T16:29:34.355Z,99410.05
2023-01-22T16:32:03.381Z,99410.71
2023-01-22T16:34:32.271Z,99415.21
2023-01-22T16:37:01.152Z,99419.21
2023-01-22T16:39:33.279Z,99419.59
2023-01-22T16:42:02.104Z,99423.49
2023-01-22T16:44:33.526Z,99427.54
2023-01-22T16:47:02.744Z,99427.88
2023-01-22T16:49:33.802Z,99429.27
2023-01-22T16:52:20.843Z,99430.46
2023-01-22T16:54:51.618Z,99435.54
2023-01-22T16:57:20.537Z,99439.38
2023-01-22T16:59:49.367Z,99441.77
2023-01-22T17:02:18.614Z,99440.50
2023-01-22T17:04:47.656Z,99447.51
2023-01-22T17:07:32.219Z,99449.00
2023-01-22T17:10:03.050Z,99450.52
2023-01-22T17:12:32.275Z,99452.23
2023-01-22T17:15:01.108Z,99452.08
2023-01-22T17:17:30.047Z,99455.42
2023-01-22T17:20:00.932Z,99453.13
2023-01-22T17:22:32.567Z,99460.23
2023-01-22T17:25:01.557Z,99466.27
2023-01-22T17:27:31.919Z,99471.30
2023-01-22T17:30:00.670Z,99471.98
2023-01-22T17:32:29.573Z,99472.83
2023-01-22T17:34:58.721Z,99475.27
2023-01-22T17:37:27.683Z,99486.20
2023-01-22T17:39:56.464Z,99484.84
2023-01-22T17:42:25.538Z,99487.52
2023-01-22T17:44:54.448Z,99485.44
2023-01-22T17:47:23.258Z,99485.58
2023-01-22T17:49:52.148Z,99489.22
2023-01-22T17:52:22.857Z,99493.30
2023-01-22T17:54:53.243Z,99497.67
2023-01-22T17:57:22.034Z,99499.79
2023-01-22T17:59:51.212Z,99500.34
2023-01-22T18:02:20.578Z,99507.05
2023-01-22T18:04:49.596Z,99505.73
2023-01-22T18:07:18.411Z,99505.67
2023-01-22T18:09:47.270Z,99504.80
2023-01-22T18:12:16.071Z,99503.23
2023-01-22T18:14:44.892Z,99504.26
2023-01-22T18:17:13.780Z,99508.79
2023-01-22T18:19:42.724Z,99510.05
2023-01-22T18:22:11.603Z,99520.49
2023-01-22T18:24:41.019Z,99527.44
2023-01-22T18:27:09.900Z,99530.02
2023-01-22T18:29:38.712Z,99526.95
2023-01-22T18:32:08.111Z,99530.84
2023-01-22T18:34:36.953Z,99531.85
2023-01-22T18:37:05.942Z,99535.66
2023-01-22T18:39:34.863Z,99535.39
2023-01-22T18:42:03.981Z,99545.77
2023-01-22T18:44:33.511Z,99548.85
2023-01-22T18:47:09.690Z,99554.19
2023-01-22T18:49:38.889Z,99551.18
2023-01-22T18:52:07.800Z,99551.84
2023-01-22T18:54:36.997Z,99544.52
2023-01-22T18:57:05.827Z,99548.50
2023-01-22T18:59:34.659Z,99554.04
2023-01-22T19:02:03.970Z,99556.96
2023-01-22T19:04:33.139Z,99561.09
2023-01-22T19:07:02.108Z,99564.49
2023-01-22T19:09:31.601Z,99565.65
2023-01-22T19:12:00.860Z,99565.63
2023-01-22T19:14:30.195Z,99567.48
2023-01-22T19:16:59.279Z,99568.15
2023-01-22T19:19:28.492Z,99567.98
2023-01-22T19:21:59.535Z,99569.23
2023-01-22T19:24:28.582Z,99572.90
2023-01-22T19:26:58.339Z,99575.13
2023-01-22T19:29:27.478Z,99577.90
2023-01-22T19:31:56.574Z,99582.20
2023-01-22T19:34:28.431Z,99583.39
2023-01-22T19:37:00.581Z,99584.89
2023-01-22T19:39:30.058Z,99588.33
2023-01-22T19:42:04.459Z,99591.10
2023-01-22T19:44:34.934Z,99590.20
2023-01-22T19:47:03.335Z,99589.30
2023-01-22T19:49:32.754Z,99592.10
2023-01-22T19:52:01.754Z,99597.15
2023-01-22T19:54:30.689Z,99598.31
2023-01-22T19:57:02.087Z,99596.70
2023-01-22T19:59:30.949Z,99599.16
2023-01-22T20:01:59.887Z,99601.85
2023-01-22T20:04:33.115Z,99602.77
2023-01-22T20:07:05.147Z,99603.15
2023-01-22T20:09:35.913Z,99604.55
2023-01-22T20:12:07.953Z,99606.66
2023-01-22T20:14:42.576Z,99604.46
2023-01-22T20:17:12.383Z,99606.53
2023-01-22T20:19:41.630Z,99607.59
2023-01-22T20:22:10.568Z,99610.58
2023-01-22T20:24:40.949Z,99607.70
2023-01-22T20:27:12.713Z,99605.15
2023-01-22T20:29:41.698Z,99607.10
2023-01-22T20:32:10.751Z,99611.48
2023-01-22T20:34:44.026Z,99614.08
2023-01-22T20:37:16.036Z,99613.99
2023-01-22T20:39:45.099Z,99615.65
2023-01-22T20:42:14.070Z,99617.39
2023-01-22T20:44:45.862Z,99615.98
2023-01-22T20:47:15.052Z,99613.19
2023-01-22T20:49:44.061Z,99614.77
2023-01-22T20:52:13.025Z,99614.98
2023-01-22T20:54:54.755Z,99616.59
2023-01-22T20:57:29.488Z,99622.07
2023-01-22T20:59:58.462Z,99626.54
2023-01-22T21:02:27.508Z,99637.45
2023-01-22T21:04:57.639Z,99640.45
2023-01-22T21:07:26.564Z,99643.45
2023-01-22T21:09:55.469Z,99646.92
2023-01-22T21:12:24.368Z,99650.58
2023-01-22T21:14:54.742Z,99651.22
2023-01-22T21:17:23.689Z,99650.31
2023-01-22T21:19:54.725Z,99649.59
2023-01-22T21:22:23.694Z,99647.50
2023-01-22T21:24:52.693Z,99649.46
2023-01-22T21:27:21.622Z,99648.27
2023-01-22T21:29:51.261Z,99648.98
2023-01-22T21:32:20.233Z,99648.48
2023-01-22T21:34:49.276Z,99649.86
2023-01-22T21:37:18.152Z,99654.04
2023-01-22T21:39:47.293Z,99658.06
2023-01-22T21:42:37.056Z,99658.96
2023-01-22T21:45:27.372Z,99660.35
2023-01-22T21:47:57.397Z,99659.12
2023-01-22T21:50:26.428Z,99656.90
2023-01-22T21:52:55.304Z,99655.86
2023-01-22T21:55:24.525Z,99658.27
2023-01-22T21:57:53.347Z,99655.48
2023-01-22T22:00:25.316Z,99659.23
2023-01-22T22:02:54.597Z,99658.03
2023-01-22T22:05:23.656Z,99665.34
2023-01-22T22:07:53.055Z,99671.61
2023-01-22T22:10:22.339Z,99676.48
2023-01-22T22:12:52.622Z,99679.94
2023-01-22T22:15:23.873Z,99683.54
2023-01-22T22:17:52.982Z,99687.84
2023-01-22T22:20:21.946Z,99693.91
2023-01-22T22:22:50.754Z,99698.41
2023-01-22T22:25:20.447Z,99695.83
2023-01-22T22:27:49.322Z,99699.91
2023-01-22T22:30:21.892Z,99707.84
2023-01-22T22:32:51.065Z,99711.88
2023-01-22T22:35:20.156Z,99712.54
2023-01-22T22:37:49.157Z,99710.94
2023-01-22T22:40:18.750Z,99710.11
2023-01-22T22:42:47.847Z,99713.48
2023-01-22T22:45:17.005Z,99715.86
2023-01-22T22:47:45.853Z,99721.05
2023-01-22T22:50:14.415Z,99725.02
2023-01-22T22:52:43.254Z,99729.67
2023-01-22T22:55:12.118Z,99736.12
2023-01-22T22:57:40.915Z,99743.18
2023-01-22T23:00:13.907Z,99749.16
2023-01-22T23:02:42.902Z,99752.02
2023-01-22T23:05:11.844Z,99750.73
2023-01-22T23:07:40.729Z,99743.05
2023-01-22T23:10:28.113Z,99725.41
2023-01-22T23:13:02.516Z,99740.23
2023-01-22T23:15:32.159Z,99759.41
2023-01-22T23:18:01.867Z,99757.10
2023-01-22T23:20:30.748Z,99742.45
2023-01-22T23:22:59.853Z,99735.88
2023-01-22T23:25:28.655Z,99738.81
2023-01-22T23:27:58.085Z,99736.17
2023-01-22T23:30:26.934Z,99732.39
2023-01-22T23:32:55.808Z,99732.55
2023-01-22T23:35:24.682Z,99734.11
2023-01-22T23:37:53.986Z,99731.85
2023-01-22T23:40:23.276Z,99731.20
2023-01-22T23:42:53.008Z,99740.06
2023-01-22T23:45:24.312Z,99745.27
2023-01-22T23:47:53.702Z,99745.95
2023-01-22T23:50:26.705Z,99747.89
2023-01-22T23:52:55.653Z,99758.48
2023-01-22T23:55:24.613Z,99760.53
2023-01-22T23:57:54.037Z,99757.91
